createdAt,value
2023-04-07T00:01:27.548Z,54.86
2023-04-07T00:03:54.103Z,55.67
2023-04-07T00:06:20.597Z,55.49
2023-04-07T00:08:47.245Z,55.25
2023-04-07T00:11:13.697Z,54.74
2023-04-07T00:13:40.116Z,56.85
2023-04-07T00:16:06.619Z,56.32
2023-04-07T00:18:33.639Z,56.26
2023-04-07T00:21:00.520Z,56.08
2023-04-07T00:23:27.811Z,55.93
2023-04-07T00:25:54.399Z,56.31
2023-04-07T00:28:22.200Z,56.95
2023-04-07T00:30:48.750Z,56.13
2023-04-07T00:33:15.317Z,56.76
2023-04-07T00:35:41.725Z,57.40
2023-04-07T00:38:08.226Z,56.42
2023-04-07T00:40:34.685Z,58.48
2023-04-07T00:43:01.140Z,59.07
2023-04-07T00:45:27.587Z,60.34
2023-04-07T00:47:54.025Z,59.58
2023-04-07T00:50:20.483Z,58.90
2023-04-07T00:52:46.943Z,58.97
2023-04-07T00:55:13.344Z,58.30
2023-04-07T00:57:39.765Z,58.31
2023-04-07T01:00:06.226Z,57.91
2023-04-07T01:02:33.521Z,57.77
2023-04-07T01:05:00.950Z,58.10
2023-04-07T01:07:27.407Z,56.48
2023-04-07T01:09:53.875Z,57.58
2023-04-07T01:12:20.405Z,57.45
2023-04-07T01:14:46.891Z,56.92
2023-04-07T01:17:13.793Z,56.63
2023-04-07T01:19:41.406Z,57.42
2023-04-07T01:22:07.962Z,56.95
2023-04-07T01:24:34.581Z,57.59
2023-04-07T01:27:03.166Z,57.83
2023-04-07T01:29:29.593Z,57.47
2023-04-07T01:31:58.377Z,57.78
2023-04-07T01:34:25.950Z,58.08
2023-04-07T01:36:53.547Z,58.53
2023-04-07T01:39:22.117Z,58.60
2023-04-07T01:41:48.709Z,58.39
2023-04-07T01:44:16.306Z,58.35
2023-04-07T01:46:43.935Z,57.91
2023-04-07T01:49:11.480Z,58.81
2023-04-07T01:51:39.068Z,58.82
2023-04-07T01:54:05.513Z,59.13
2023-04-07T01:56:32.027Z,60.02
2023-04-07T01:58:58.455Z,60.86
2023-04-07T02:01:24.907Z,60.85
2023-04-07T02:03:53.363Z,60.20
2023-04-07T02:06:20.617Z,61.14
2023-04-07T02:08:47.100Z,60.50
2023-04-07T02:11:13.785Z,61.18
2023-04-07T02:13:42.373Z,60.93
2023-04-07T02:16:08.981Z,62.37
2023-04-07T02:18:36.550Z,61.46
2023-04-07T02:21:03.152Z,60.96
2023-04-07T02:23:29.755Z,61.28
2023-04-07T02:25:56.238Z,61.49
2023-04-07T02:28:22.687Z,60.98
2023-04-07T02:30:49.529Z,60.36
2023-04-07T02:33:17.144Z,59.55
2023-04-07T02:35:44.706Z,60.75
2023-04-07T02:38:11.318Z,61.02
2023-04-07T02:40:39.900Z,60.30
2023-04-07T02:43:06.828Z,60.35
2023-04-07T02:45:34.150Z,59.93
2023-04-07T02:48:01.886Z,60.13
2023-04-07T02:50:29.309Z,59.58
2023-04-07T02:52:55.890Z,59.29
2023-04-07T02:55:22.739Z,60.79
2023-04-07T02:57:51.085Z,60.68
2023-04-07T03:00:17.665Z,60.65
2023-04-07T03:02:44.370Z,59.11
2023-04-07T03:05:11.847Z,59.64
2023-04-07T03:07:40.705Z,61.14
2023-04-07T03:10:08.045Z,60.19
2023-04-07T03:12:34.889Z,60.00
2023-04-07T03:15:02.222Z,60.69
2023-04-07T03:17:29.834Z,61.70
2023-04-07T03:19:57.397Z,61.60
2023-04-07T03:22:23.866Z,61.10
2023-04-07T03:24:50.593Z,61.24
2023-04-07T03:27:18.184Z,61.09
2023-04-07T03:29:44.791Z,62.66
2023-04-07T03:32:12.521Z,61.03
2023-04-07T03:34:39.952Z,60.27
2023-04-07T03:37:06.566Z,60.59
2023-04-07T03:39:34.132Z,60.78
2023-04-07T03:42:01.692Z,60.78
2023-04-07T03:44:28.551Z,60.64
2023-04-07T03:46:55.918Z,60.82
2023-04-07T03:49:23.483Z,61.52
2023-04-07T03:51:52.125Z,62.23
2023-04-07T03:54:18.715Z,61.80
2023-04-07T03:56:46.338Z,60.97
2023-04-07T03:59:14.937Z,60.31
2023-04-07T04:01:41.575Z,61.33
2023-04-07T04:04:10.349Z,61.13
2023-04-07T04:06:37.734Z,60.93
2023-04-07T04:09:06.327Z,63.41
2023-04-07T04:11:33.924Z,63.78
2023-04-07T04:14:01.530Z,63.03
2023-04-07T04:16:29.261Z,64.25
2023-04-07T04:18:58.350Z,62.95
2023-04-07T04:21:25.426Z,63.72
2023-04-07T04:23:54.105Z,66.12
2023-04-07T04:26:21.492Z,67.29
2023-04-07T04:28:49.092Z,69.46
2023-04-07T04:31:16.732Z,72.33
2023-04-07T04:33:45.282Z,74.07
2023-04-07T04:36:12.924Z,76.15
2023-04-07T04:38:41.538Z,76.95
2023-04-07T04:41:09.122Z,78.11
2023-04-07T04:43:35.757Z,78.22
2023-04-07T04:46:03.351Z,78.42
2023-04-07T04:48:30.933Z,78.73
2023-04-07T04:50:57.539Z,79.46
2023-04-07T04:53:25.130Z,80.94
2023-04-07T04:55:53.717Z,80.79
2023-04-07T04:58:22.302Z,80.58
2023-04-07T05:00:49.949Z,80.81
2023-04-07T05:03:17.784Z,80.71
2023-04-07T05:05:45.088Z,81.86
2023-04-07T05:08:11.901Z,82.22
2023-04-07T05:10:39.288Z,81.61
2023-04-07T05:13:06.833Z,80.73
2023-04-07T05:15:33.452Z,80.93
2023-04-07T05:18:01.089Z,81.25
2023-04-07T05:20:30.243Z,81.40
2023-04-07T05:22:57.259Z,80.99
2023-04-07T05:25:24.797Z,81.16
2023-04-07T05:27:52.392Z,80.23
2023-04-07T05:30:19.955Z,82.09
2023-04-07T05:32:46.572Z,80.77
2023-04-07T05:35:14.198Z,82.71
2023-04-07T05:37:41.756Z,82.84
2023-04-07T05:40:09.347Z,83.00
2023-04-07T05:42:35.767Z,82.65
2023-04-07T05:45:02.261Z,80.73
2023-04-07T05:47:30.120Z,82.71
2023-04-07T05:49:57.681Z,83.05
2023-04-07T05:52:24.283Z,80.52
2023-04-07T05:54:51.848Z,82.58
2023-04-07T05:57:18.446Z,83.77
2023-04-07T05:59:45.030Z,83.54
2023-04-07T06:02:11.759Z,83.44
2023-04-07T06:04:39.241Z,83.73
2023-04-07T06:07:05.674Z,84.06
2023-04-07T06:09:32.120Z,83.63
2023-04-07T06:11:58.577Z,84.02
2023-04-07T06:14:25.050Z,79.75
2023-04-07T06:16:51.547Z,81.97
2023-04-07T06:19:18.018Z,82.59
2023-04-07T06:21:45.353Z,82.62
2023-04-07T06:24:12.174Z,81.22
2023-04-07T06:26:39.541Z,82.05
2023-04-07T06:29:07.132Z,82.21
2023-04-07T06:31:33.715Z,81.79
2023-04-07T06:34:00.305Z,81.11
2023-04-07T06:36:27.125Z,83.02
2023-04-07T06:38:53.683Z,81.90
2023-04-07T06:41:20.198Z,81.12
2023-04-07T06:43:46.972Z,82.24
2023-04-07T06:46:13.710Z,80.86
2023-04-07T06:48:40.839Z,83.49
2023-04-07T06:51:09.437Z,84.88
2023-04-07T06:53:37.034Z,84.69
2023-04-07T06:56:04.661Z,84.38
2023-04-07T06:58:31.132Z,84.82
2023-04-07T07:00:57.650Z,84.20
2023-04-07T07:03:24.225Z,84.57
2023-04-07T07:05:51.974Z,83.80
2023-04-07T07:08:18.550Z,83.42
2023-04-07T07:10:45.153Z,83.20
2023-04-07T07:13:13.738Z,82.72
2023-04-07T07:15:40.410Z,82.49
2023-04-07T07:18:07.970Z,82.55
2023-04-07T07:20:35.548Z,82.65
2023-04-07T07:23:03.115Z,82.89
2023-04-07T07:25:30.713Z,83.03
2023-04-07T07:28:05.188Z,82.71
2023-04-07T07:30:32.920Z,83.43
2023-04-07T07:32:59.764Z,82.58
2023-04-07T07:35:27.091Z,81.40
2023-04-07T07:37:53.840Z,81.10
2023-04-07T07:40:21.294Z,81.11
2023-04-07T07:42:48.878Z,80.82
2023-04-07T07:45:15.469Z,81.17
2023-04-07T07:47:43.132Z,80.61
2023-04-07T07:50:09.732Z,80.88
2023-04-07T07:52:36.550Z,80.69
2023-04-07T07:55:02.966Z,80.81
2023-04-07T07:57:31.481Z,81.03
2023-04-07T07:59:57.902Z,80.50
2023-04-07T08:02:24.696Z,80.42
2023-04-07T08:04:51.149Z,81.02
2023-04-07T08:07:17.600Z,80.23
2023-04-07T08:09:44.006Z,80.44
2023-04-07T08:12:10.424Z,79.85
2023-04-07T08:14:36.858Z,79.87
2023-04-07T08:17:03.282Z,80.52
2023-04-07T08:19:29.672Z,80.12
2023-04-07T08:21:56.154Z,80.56
2023-04-07T08:24:22.608Z,81.20
2023-04-07T08:26:49.067Z,80.64
2023-04-07T08:29:15.484Z,80.07
2023-04-07T08:31:41.920Z,80.47
2023-04-07T08:34:08.360Z,81.24
2023-04-07T08:36:34.872Z,80.17
2023-04-07T08:39:01.319Z,80.37
2023-04-07T08:41:27.782Z,80.26
2023-04-07T08:43:54.212Z,79.83
2023-04-07T08:46:21.336Z,79.68
2023-04-07T08:48:48.860Z,79.66
2023-04-07T08:51:16.454Z,78.59
2023-04-07T08:53:42.958Z,78.66
2023-04-07T08:56:09.391Z,79.64
2023-04-07T08:58:36.197Z,79.81
2023-04-07T09:01:04.804Z,79.60
2023-04-07T09:03:32.484Z,79.83
2023-04-07T09:05:59.965Z,79.60
2023-04-07T09:08:26.397Z,79.74
2023-04-07T09:10:52.828Z,79.17
2023-04-07T09:13:19.316Z,74.79
2023-04-07T09:15:45.759Z,76.21
2023-04-07T09:18:12.141Z,75.68
2023-04-07T09:20:38.641Z,75.71
2023-04-07T09:23:05.058Z,75.87
2023-04-07T09:25:31.496Z,76.75
2023-04-07T09:27:58.274Z,76.74
2023-04-07T09:30:24.907Z,77.67
2023-04-07T09:32:52.478Z,76.66
2023-04-07T09:35:19.243Z,77.64
2023-04-07T09:37:45.618Z,78.05
2023-04-07T09:40:13.236Z,77.01
2023-04-07T09:42:40.795Z,76.49
2023-04-07T09:45:08.393Z,75.80
2023-04-07T09:47:35.023Z,74.31
2023-04-07T09:50:01.588Z,75.35
2023-04-07T09:52:29.181Z,74.26
2023-04-07T09:54:55.623Z,73.67
2023-04-07T09:57:22.044Z,75.06
2023-04-07T09:59:48.441Z,75.76
2023-04-07T10:02:14.914Z,72.31
2023-04-07T10:04:43.116Z,73.46
2023-04-07T10:07:09.818Z,72.02
2023-04-07T10:09:37.373Z,72.49
2023-04-07T10:12:03.970Z,71.59
2023-04-07T10:14:30.432Z,70.19
2023-04-07T10:16:56.921Z,68.96
2023-04-07T10:19:23.421Z,68.23
2023-04-07T10:21:49.837Z,64.76
2023-04-07T10:24:16.277Z,62.19
2023-04-07T10:26:42.688Z,68.55
2023-04-07T10:29:09.074Z,70.43
2023-04-07T10:31:35.603Z,67.44
2023-04-07T10:34:02.105Z,68.90
2023-04-07T10:36:28.952Z,69.34
2023-04-07T10:38:56.476Z,67.16
2023-04-07T10:41:22.934Z,66.79
2023-04-07T10:43:49.992Z,72.06
2023-04-07T10:46:17.020Z,72.22
2023-04-07T10:48:43.442Z,67.79
2023-04-07T10:51:09.893Z,70.19
2023-04-07T10:53:36.288Z,69.62
2023-04-07T10:56:03.063Z,69.31
2023-04-07T10:58:31.198Z,65.86
2023-04-07T11:00:58.783Z,68.22
2023-04-07T11:03:25.776Z,69.56
2023-04-07T11:05:53.082Z,67.45
2023-04-07T11:08:19.502Z,67.63
2023-04-07T11:10:45.911Z,68.73
2023-04-07T11:13:12.333Z,69.35
2023-04-07T11:15:40.762Z,70.63
2023-04-07T11:18:07.922Z,68.90
2023-04-07T11:20:34.488Z,66.62
2023-04-07T11:23:01.083Z,63.66
2023-04-07T11:25:27.699Z,64.60
2023-04-07T11:27:54.116Z,63.73
2023-04-07T11:30:20.527Z,64.80
2023-04-07T11:32:47.458Z,65.92
2023-04-07T11:35:15.043Z,60.45
2023-04-07T11:37:43.650Z,61.08
2023-04-07T11:40:10.218Z,61.40
2023-04-07T11:42:36.808Z,63.15
2023-04-07T11:45:06.015Z,59.59
2023-04-07T11:47:35.051Z,61.52
2023-04-07T11:50:02.593Z,57.65
2023-04-07T11:52:29.020Z,54.01
2023-04-07T11:54:55.779Z,54.06
2023-04-07T11:57:23.377Z,60.48
2023-04-07T11:59:50.983Z,56.07
2023-04-07T12:02:17.493Z,54.39
2023-04-07T12:04:45.333Z,55.14
2023-04-07T12:07:12.783Z,54.08
2023-04-07T12:09:40.352Z,54.42
2023-04-07T12:12:06.766Z,49.09
2023-04-07T12:14:33.512Z,53.35
2023-04-07T12:16:59.937Z,51.36
2023-04-07T12:19:26.340Z,49.41
2023-04-07T12:21:52.742Z,51.50
2023-04-07T12:24:19.136Z,51.25
2023-04-07T12:26:46.468Z,47.30
2023-04-07T12:29:14.086Z,48.42
2023-04-07T12:31:40.676Z,50.40
2023-04-07T12:34:07.093Z,47.39
2023-04-07T12:36:33.544Z,46.16
2023-04-07T12:39:00.463Z,46.28
2023-04-07T12:41:27.015Z,46.07
2023-04-07T12:43:53.514Z,49.23
2023-04-07T12:46:20.006Z,46.03
2023-04-07T12:48:46.453Z,50.45
2023-04-07T12:51:13.407Z,48.40
2023-04-07T12:53:42.075Z,46.84
2023-04-07T12:56:08.525Z,46.70
2023-04-07T12:58:34.938Z,49.77
2023-04-07T13:01:01.368Z,47.35
2023-04-07T13:03:28.061Z,46.76
2023-04-07T13:05:54.670Z,49.04
2023-04-07T13:08:21.078Z,48.18
2023-04-07T13:10:47.476Z,51.29
2023-04-07T13:13:13.898Z,49.88
2023-04-07T13:15:42.368Z,49.55
2023-04-07T13:18:08.958Z,48.69
2023-04-07T13:20:35.412Z,50.62
2023-04-07T13:23:07.543Z,51.58
2023-04-07T13:25:36.774Z,50.86
2023-04-07T13:28:03.443Z,50.52
2023-04-07T13:30:29.913Z,49.46
2023-04-07T13:32:56.517Z,50.53
2023-04-07T13:35:22.960Z,49.53
2023-04-07T13:37:49.394Z,51.41
2023-04-07T13:40:15.863Z,51.07
2023-04-07T13:42:42.313Z,51.77
2023-04-07T13:45:08.723Z,52.23
2023-04-07T13:47:35.110Z,51.95
2023-04-07T13:50:02.655Z,48.81
2023-04-07T13:52:29.072Z,50.09
2023-04-07T13:54:55.515Z,51.10
2023-04-07T13:57:21.941Z,50.27
2023-04-07T13:59:48.389Z,51.11
2023-04-07T14:02:14.916Z,51.72
2023-04-07T14:04:42.418Z,48.66
2023-04-07T14:07:09.909Z,49.11
2023-04-07T14:09:36.371Z,50.42
2023-04-07T14:12:02.804Z,48.32
2023-04-07T14:14:29.197Z,48.06
2023-04-07T14:16:55.578Z,48.44
2023-04-07T14:19:23.322Z,47.14
2023-04-07T14:21:49.819Z,46.49
2023-04-07T14:24:16.209Z,48.58
2023-04-07T14:26:43.631Z,49.21
2023-04-07T14:29:11.188Z,46.59
2023-04-07T14:31:37.745Z,48.53
2023-04-07T14:34:04.297Z,47.41
2023-04-07T14:36:30.699Z,44.41
2023-04-07T14:38:57.097Z,45.54
2023-04-07T14:41:23.542Z,43.92
2023-04-07T14:43:51.071Z,41.54
2023-04-07T14:46:19.441Z,43.57
2023-04-07T14:48:45.837Z,43.63
2023-04-07T14:51:12.279Z,45.99
2023-04-07T14:53:38.711Z,41.76
2023-04-07T14:56:05.114Z,43.18
2023-04-07T14:58:31.497Z,42.96
2023-04-07T15:00:57.919Z,47.84
2023-04-07T15:03:25.572Z,49.19
2023-04-07T15:05:52.224Z,48.92
2023-04-07T15:08:18.614Z,49.45
2023-04-07T15:10:45.035Z,48.25
2023-04-07T15:13:11.478Z,48.12
2023-04-07T15:15:37.890Z,47.90
2023-04-07T15:18:04.416Z,47.66
2023-04-07T15:20:30.893Z,45.52
2023-04-07T15:22:57.331Z,46.83
2023-04-07T15:25:23.756Z,46.67
2023-04-07T15:27:50.175Z,46.89
2023-04-07T15:30:16.553Z,47.11
2023-04-07T15:32:43.027Z,47.90
2023-04-07T15:35:09.415Z,47.06
2023-04-07T15:37:35.826Z,47.65
2023-04-07T15:40:02.211Z,49.33
2023-04-07T15:42:28.612Z,51.17
2023-04-07T15:44:55.116Z,50.01
2023-04-07T15:47:21.546Z,49.30
2023-04-07T15:49:47.943Z,50.18
2023-04-07T15:52:14.361Z,49.16
2023-04-07T15:54:40.788Z,50.12
2023-04-07T15:57:07.236Z,50.41
2023-04-07T15:59:33.658Z,49.63
2023-04-07T16:02:00.127Z,49.97
2023-04-07T16:04:26.643Z,51.60
2023-04-07T16:06:53.070Z,49.83
2023-04-07T16:09:19.494Z,50.98
2023-04-07T16:11:45.873Z,51.71
2023-04-07T16:14:12.282Z,50.65
2023-04-07T16:16:38.960Z,51.47
2023-04-07T16:19:05.430Z,51.25
2023-04-07T16:21:31.925Z,51.15
2023-04-07T16:23:58.305Z,50.34
2023-04-07T16:26:24.741Z,51.19
2023-04-07T16:28:51.159Z,52.48
2023-04-07T16:31:17.588Z,51.85
2023-04-07T16:33:43.993Z,51.76
2023-04-07T16:36:10.449Z,51.73
2023-04-07T16:38:36.873Z,50.69
2023-04-07T16:41:04.701Z,50.20
2023-04-07T16:43:31.436Z,50.83
2023-04-07T16:45:57.892Z,50.51
2023-04-07T16:48:24.313Z,50.78
2023-04-07T16:50:51.522Z,50.92
2023-04-07T16:53:18.883Z,50.73
2023-04-07T16:55:45.338Z,51.13
2023-04-07T16:58:11.722Z,51.29
2023-04-07T17:00:38.170Z,51.34
2023-04-07T17:03:04.684Z,51.85
2023-04-07T17:05:31.192Z,51.17
2023-04-07T17:07:57.579Z,52.33
2023-04-07T17:10:23.996Z,51.58
2023-04-07T17:12:50.485Z,52.64
2023-04-07T17:15:16.864Z,54.67
2023-04-07T17:17:43.265Z,53.94
2023-04-07T17:20:09.684Z,54.79
2023-04-07T17:22:36.117Z,54.65
2023-04-07T17:25:02.505Z,54.05
2023-04-07T17:27:28.923Z,56.12
2023-04-07T17:29:55.367Z,55.93
2023-04-07T17:32:21.809Z,57.13
2023-04-07T17:34:48.258Z,56.47
2023-04-07T17:37:14.661Z,58.35
2023-04-07T17:39:41.137Z,58.78
2023-04-07T17:42:07.544Z,58.37
2023-04-07T17:44:33.995Z,59.00
2023-04-07T17:47:00.400Z,58.79
2023-04-07T17:49:26.818Z,58.62
2023-04-07T17:51:53.223Z,58.63
2023-04-07T17:54:19.617Z,58.71
2023-04-07T17:56:46.034Z,60.08
2023-04-07T17:59:12.446Z,60.60
2023-04-07T18:01:39.034Z,60.41
2023-04-07T18:04:06.710Z,60.26
2023-04-07T18:06:33.312Z,61.17
2023-04-07T18:08:59.722Z,61.22
2023-04-07T18:11:26.194Z,60.08
2023-04-07T18:13:52.617Z,60.21
2023-04-07T18:16:21.848Z,60.12
2023-04-07T18:18:48.767Z,60.96
2023-04-07T18:21:15.186Z,60.99
2023-04-07T18:23:41.571Z,62.49
2023-04-07T18:26:07.976Z,62.46
2023-04-07T18:28:34.390Z,61.14
2023-04-07T18:31:00.800Z,61.20
2023-04-07T18:33:27.232Z,61.01
2023-04-07T18:35:53.713Z,61.73
2023-04-07T18:38:20.136Z,60.27
2023-04-07T18:40:46.544Z,61.02
2023-04-07T18:43:12.948Z,61.27
2023-04-07T18:45:39.387Z,61.00
2023-04-07T18:48:05.835Z,61.37
2023-04-07T18:50:32.239Z,63.06
2023-04-07T18:52:58.712Z,60.56
2023-04-07T18:55:25.143Z,59.15
2023-04-07T18:57:51.517Z,61.25
2023-04-07T19:00:17.927Z,61.20
2023-04-07T19:02:44.759Z,60.90
2023-04-07T19:05:11.381Z,59.91
2023-04-07T19:07:37.820Z,59.41
2023-04-07T19:10:04.231Z,59.46
2023-04-07T19:12:30.625Z,59.47
2023-04-07T19:14:57.022Z,59.37
2023-04-07T19:17:23.528Z,58.71
2023-04-07T19:19:49.960Z,58.88
2023-04-07T19:22:16.372Z,59.63
2023-04-07T19:24:42.886Z,60.07
2023-04-07T19:27:09.296Z,61.18
2023-04-07T19:29:35.690Z,60.50
2023-04-07T19:32:02.196Z,61.02
2023-04-07T19:34:28.622Z,61.05
2023-04-07T19:36:54.998Z,61.34
2023-04-07T19:39:21.413Z,61.59
2023-04-07T19:41:47.821Z,61.95
2023-04-07T19:44:14.271Z,62.22
2023-04-07T19:46:40.700Z,62.24
2023-04-07T19:49:07.153Z,62.75
2023-04-07T19:51:33.531Z,63.38
2023-04-07T19:53:59.934Z,63.73
2023-04-07T19:56:26.357Z,64.19
2023-04-07T19:58:52.768Z,64.69
2023-04-07T20:01:19.266Z,64.22
2023-04-07T20:03:45.761Z,64.32
2023-04-07T20:06:12.228Z,64.80
2023-04-07T20:08:38.624Z,64.27
2023-04-07T20:11:05.050Z,63.76
2023-04-07T20:13:31.469Z,64.65
2023-04-07T20:15:57.947Z,64.59
2023-04-07T20:18:24.370Z,64.25
2023-04-07T20:20:50.844Z,64.78
2023-04-07T20:23:17.245Z,65.36
2023-04-07T20:25:43.641Z,64.54
2023-04-07T20:28:10.119Z,65.32
2023-04-07T20:30:36.596Z,65.09
2023-04-07T20:33:03.130Z,65.25
2023-04-07T20:35:29.689Z,66.58
2023-04-07T20:37:56.142Z,66.31
2023-04-07T20:40:22.626Z,65.92
2023-04-07T20:42:49.059Z,65.55
2023-04-07T20:45:15.472Z,66.10
2023-04-07T20:47:41.873Z,65.94
2023-04-07T20:50:08.339Z,66.48
2023-04-07T20:52:34.749Z,66.41
2023-04-07T20:55:01.188Z,65.57
2023-04-07T20:57:27.613Z,66.14
2023-04-07T20:59:54.002Z,65.81
2023-04-07T21:02:20.511Z,66.19
2023-04-07T21:04:47.035Z,65.71
2023-04-07T21:07:13.406Z,66.10
2023-04-07T21:09:39.810Z,65.51
2023-04-07T21:12:06.214Z,66.34
2023-04-07T21:14:32.611Z,66.60
2023-04-07T21:16:59.016Z,66.54
2023-04-07T21:19:25.405Z,67.07
2023-04-07T21:21:51.875Z,67.27
2023-04-07T21:24:18.294Z,67.62
2023-04-07T21:26:44.676Z,67.82
2023-04-07T21:29:11.103Z,68.16
2023-04-07T21:31:37.553Z,68.07
2023-04-07T21:34:04.052Z,68.26
2023-04-07T21:36:30.465Z,68.42
2023-04-07T21:38:56.871Z,68.79
2023-04-07T21:41:23.376Z,68.41
2023-04-07T21:43:49.825Z,68.74
2023-04-07T21:46:16.241Z,67.66
2023-04-07T21:48:42.648Z,68.04
2023-04-07T21:51:09.088Z,67.56
2023-04-07T21:53:35.459Z,68.18
2023-04-07T21:56:01.883Z,67.99
2023-04-07T21:58:28.293Z,68.59
2023-04-07T22:00:54.689Z,68.83
2023-04-07T22:03:21.226Z,69.37
2023-04-07T22:05:47.800Z,68.71
2023-04-07T22:08:14.214Z,68.78
2023-04-07T22:10:40.646Z,67.65
2023-04-07T22:13:07.065Z,67.78
2023-04-07T22:15:33.461Z,68.34
2023-04-07T22:17:59.898Z,67.78
2023-04-07T22:20:26.384Z,68.48
2023-04-07T22:22:52.827Z,68.45
2023-04-07T22:25:19.253Z,68.13
2023-04-07T22:27:45.674Z,67.86
2023-04-07T22:30:12.145Z,68.32
2023-04-07T22:32:38.568Z,67.99
2023-04-07T22:35:05.042Z,67.58
2023-04-07T22:37:31.448Z,68.09
2023-04-07T22:39:57.866Z,67.59
2023-04-07T22:42:24.272Z,67.14
2023-04-07T22:44:50.693Z,66.98
2023-04-07T22:47:17.111Z,67.10
2023-04-07T22:49:43.488Z,67.06
2023-04-07T22:52:09.908Z,67.16
2023-04-07T22:54:36.326Z,67.43
2023-04-07T22:57:02.734Z,67.36
2023-04-07T22:59:29.197Z,67.47
2023-04-07T23:01:57.178Z,67.49
2023-04-07T23:04:24.286Z,67.89
2023-04-07T23:06:50.738Z,68.79
2023-04-07T23:09:17.141Z,69.27
2023-04-07T23:11:43.548Z,69.14
2023-04-07T23:14:09.948Z,69.22
2023-04-07T23:16:36.526Z,68.82
2023-04-07T23:19:03.011Z,68.83
2023-04-07T23:21:31.362Z,69.40
2023-04-07T23:23:58.043Z,67.83
2023-04-07T23:26:24.432Z,68.21
2023-04-07T23:28:51.080Z,67.64
2023-04-07T23:31:17.787Z,68.99
2023-04-07T23:33:44.228Z,69.30
2023-04-07T23:36:10.672Z,68.63
2023-04-07T23:38:37.100Z,68.71
2023-04-07T23:41:03.556Z,69.13
2023-04-07T23:43:29.947Z,68.55
2023-04-07T23:45:56.401Z,68.99
2023-04-07T23:48:22.830Z,69.47
2023-04-07T23:50:49.298Z,69.54
2023-04-07T23:53:15.699Z,69.46
2023-04-07T23:55:42.100Z,69.78
2023-04-07T23:58:08.527Z,70.49
